sensor_id;sensor_type;location;lat;lon;timestamp;temperature;humidity
4673;DHT22;61885;53.560;9.940;2023-06-14T00:01:24;16.50;70.50
4673;DHT22;61885;53.560;9.940;2023-06-14T00:03:55;16.60;70.00
4673;DHT22;61885;53.560;9.940;2023-06-14T00:06:25;16.60;69.80
4673;DHT22;61885;53.560;9.940;2023-06-14T00:08:57;16.50;69.90
4673;DHT22;61885;53.560;9.940;2023-06-14T00:11:26;16.50;70.50
4673;DHT22;61885;53.560;9.940;2023-06-14T00:13:57;16.40;70.50
4673;DHT22;61885;53.560;9.940;2023-06-14T00:16:26;16.50;70.50
4673;DHT22;61885;53.560;9.940;2023-06-14T00:18:56;16.50;70.40
4673;DHT22;61885;53.560;9.940;2023-06-14T00:21:26;16.50;70.40
4673;DHT22;61885;53.560;9.940;2023-06-14T00:23:58;16.40;70.90
4673;DHT22;61885;53.560;9.940;2023-06-14T00:26:29;16.30;71.10
4673;DHT22;61885;53.560;9.940;2023-06-14T00:28:59;16.30;71.10
4673;DHT22;61885;53.560;9.940;2023-06-14T00:31:29;16.20;71.50
4673;DHT22;61885;53.560;9.940;2023-06-14T00:33:58;16.10;71.80
4673;DHT22;61885;53.560;9.940;2023-06-14T00:36:28;16.10;71.70
4673;DHT22;61885;53.560;9.940;2023-06-14T00:39:00;16.20;71.70
4673;DHT22;61885;53.560;9.940;2023-06-14T00:41:30;16.20;71.70
4673;DHT22;61885;53.560;9.940;2023-06-14T00:43:59;16.30;71.40
4673;DHT22;61885;53.560;9.940;2023-06-14T00:46:29;16.20;71.60
4673;DHT22;61885;53.560;9.940;2023-06-14T00:48:59;16.20;71.60
4673;DHT22;61885;53.560;9.940;2023-06-14T00:51:29;16.10;71.80
4673;DHT22;61885;53.560;9.940;2023-06-14T00:54:02;16.10;71.90
4673;DHT22;61885;53.560;9.940;2023-06-14T00:56:32;16.10;72.30
4673;DHT22;61885;53.560;9.940;2023-06-14T00:59:02;16.00;72.50
4673;DHT22;61885;53.560;9.940;2023-06-14T01:01:34;16.00;72.50
4673;DHT22;61885;53.560;9.940;2023-06-14T01:04:05;16.10;72.10
4673;DHT22;61885;53.560;9.940;2023-06-14T01:06:41;16.00;72.10
4673;DHT22;61885;53.560;9.940;2023-06-14T01:09:23;16.00;72.30
4673;DHT22;61885;53.560;9.940;2023-06-14T01:12:03;16.10;72.30
4673;DHT22;61885;53.560;9.940;2023-06-14T01:14:34;16.10;72.10
4673;DHT22;61885;53.560;9.940;2023-06-14T01:17:05;16.10;72.50
4673;DHT22;61885;53.560;9.940;2023-06-14T01:19:45;16.10;72.30
4673;DHT22;61885;53.560;9.940;2023-06-14T01:22:15;16.10;72.40
4673;DHT22;61885;53.560;9.940;2023-06-14T01:24:47;16.00;72.70
4673;DHT22;61885;53.560;9.940;2023-06-14T01:27:22;16.00;72.90
4673;DHT22;61885;53.560;9.940;2023-06-14T01:29:58;16.00;72.70
4673;DHT22;61885;53.560;9.940;2023-06-14T01:32:31;16.00;72.70
4673;DHT22;61885;53.560;9.940;2023-06-14T01:35:00;15.90;72.80
4673;DHT22;61885;53.560;9.940;2023-06-14T01:37:30;15.80;73.20
4673;DHT22;61885;53.560;9.940;2023-06-14T01:40:04;15.90;73.40
4673;DHT22;61885;53.560;9.940;2023-06-14T01:42:36;15.80;73.80
4673;DHT22;61885;53.560;9.940;2023-06-14T01:45:08;15.80;73.80
4673;DHT22;61885;53.560;9.940;2023-06-14T01:47:39;15.70;73.80
4673;DHT22;61885;53.560;9.940;2023-06-14T01:50:09;15.70;73.80
4673;DHT22;61885;53.560;9.940;2023-06-14T01:52:39;15.70;74.00
4673;DHT22;61885;53.560;9.940;2023-06-14T01:55:14;15.70;73.90
4673;DHT22;61885;53.560;9.940;2023-06-14T01:57:46;15.70;74.10
4673;DHT22;61885;53.560;9.940;2023-06-14T02:00:16;15.70;74.10
4673;DHT22;61885;53.560;9.940;2023-06-14T02:02:46;15.60;74.20
4673;DHT22;61885;53.560;9.940;2023-06-14T02:05:18;15.60;74.30
4673;DHT22;61885;53.560;9.940;2023-06-14T02:07:48;15.50;74.80
4673;DHT22;61885;53.560;9.940;2023-06-14T02:10:20;15.60;74.80
4673;DHT22;61885;53.560;9.940;2023-06-14T02:12:50;15.50;74.80
4673;DHT22;61885;53.560;9.940;2023-06-14T02:15:20;15.60;74.80
4673;DHT22;61885;53.560;9.940;2023-06-14T02:17:49;15.60;74.90
4673;DHT22;61885;53.560;9.940;2023-06-14T02:20:20;15.40;75.10
4673;DHT22;61885;53.560;9.940;2023-06-14T02:22:50;15.40;75.50
4673;DHT22;61885;53.560;9.940;2023-06-14T02:25:22;15.50;75.30
4673;DHT22;61885;53.560;9.940;2023-06-14T02:27:54;15.40;75.40
4673;DHT22;61885;53.560;9.940;2023-06-14T02:30:24;15.40;76.10
4673;DHT22;61885;53.560;9.940;2023-06-14T02:32:53;15.40;76.20
4673;DHT22;61885;53.560;9.940;2023-06-14T02:35:23;15.30;76.40
4673;DHT22;61885;53.560;9.940;2023-06-14T02:37:58;15.40;76.40
4673;DHT22;61885;53.560;9.940;2023-06-14T02:40:30;15.40;75.80
4673;DHT22;61885;53.560;9.940;2023-06-14T02:43:00;15.30;76.30
4673;DHT22;61885;53.560;9.940;2023-06-14T02:45:29;15.30;76.60
4673;DHT22;61885;53.560;9.940;2023-06-14T02:47:59;15.30;76.60
4673;DHT22;61885;53.560;9.940;2023-06-14T02:50:28;15.30;76.90
4673;DHT22;61885;53.560;9.940;2023-06-14T02:52:58;15.30;76.80
4673;DHT22;61885;53.560;9.940;2023-06-14T02:55:31;15.20;77.00
4673;DHT22;61885;53.560;9.940;2023-06-14T02:58:06;15.30;76.90
4673;DHT22;61885;53.560;9.940;2023-06-14T03:00:36;15.30;76.90
4673;DHT22;61885;53.560;9.940;2023-06-14T03:03:07;15.20;77.20
4673;DHT22;61885;53.560;9.940;2023-06-14T03:05:42;15.20;77.30
4673;DHT22;61885;53.560;9.940;2023-06-14T03:08:12;15.20;77.40
4673;DHT22;61885;53.560;9.940;2023-06-14T03:10:46;15.20;77.20
4673;DHT22;61885;53.560;9.940;2023-06-14T03:13:16;15.20;77.30
4673;DHT22;61885;53.560;9.940;2023-06-14T03:15:47;15.20;77.60
4673;DHT22;61885;53.560;9.940;2023-06-14T03:18:17;15.20;77.60
4673;DHT22;61885;53.560;9.940;2023-06-14T03:20:49;15.10;77.90
4673;DHT22;61885;53.560;9.940;2023-06-14T03:23:18;15.10;77.90
4673;DHT22;61885;53.560;9.940;2023-06-14T03:25:51;15.20;77.90
4673;DHT22;61885;53.560;9.940;2023-06-14T03:28:20;15.20;77.90
4673;DHT22;61885;53.560;9.940;2023-06-14T03:30:50;15.10;77.90
4673;DHT22;61885;53.560;9.940;2023-06-14T03:33:21;15.20;77.90
4673;DHT22;61885;53.560;9.940;2023-06-14T03:35:51;15.20;77.90
4673;DHT22;61885;53.560;9.940;2023-06-14T03:38:22;15.20;78.00
4673;DHT22;61885;53.560;9.940;2023-06-14T03:40:54;15.20;77.90
4673;DHT22;61885;53.560;9.940;2023-06-14T03:43:26;15.20;78.10
4673;DHT22;61885;53.560;9.940;2023-06-14T03:45:56;15.10;78.20
4673;DHT22;61885;53.560;9.940;2023-06-14T03:48:26;15.10;78.30
4673;DHT22;61885;53.560;9.940;2023-06-14T03:50:56;15.10;78.40
4673;DHT22;61885;53.560;9.940;2023-06-14T03:53:26;15.20;78.40
4673;DHT22;61885;53.560;9.940;2023-06-14T03:55:59;15.20;78.60
4673;DHT22;61885;53.560;9.940;2023-06-14T03:58:28;15.40;77.60
4673;DHT22;61885;53.560;9.940;2023-06-14T04:00:58;15.40;78.00
4673;DHT22;61885;53.560;9.940;2023-06-14T04:03:28;15.30;78.30
4673;DHT22;61885;53.560;9.940;2023-06-14T04:05:58;15.40;78.20
4673;DHT22;61885;53.560;9.940;2023-06-14T04:08:27;15.40;78.10
4673;DHT22;61885;53.560;9.940;2023-06-14T04:10:59;15.50;77.50
4673;DHT22;61885;53.560;9.940;2023-06-14T04:13:29;15.60;77.50
4673;DHT22;61885;53.560;9.940;2023-06-14T04:16:01;15.50;77.50
4673;DHT22;61885;53.560;9.940;2023-06-14T04:18:31;15.60;77.30
4673;DHT22;61885;53.560;9.940;2023-06-14T04:21:02;15.90;80.00
4673;DHT22;61885;53.560;9.940;2023-06-14T04:23:32;16.50;76.00
4673;DHT22;61885;53.560;9.940;2023-06-14T04:26:04;16.40;75.90
4673;DHT22;61885;53.560;9.940;2023-06-14T04:28:34;16.50;75.90
4673;DHT22;61885;53.560;9.940;2023-06-14T04:31:07;16.40;75.40
4673;DHT22;61885;53.560;9.940;2023-06-14T04:33:38;16.60;77.10
4673;DHT22;61885;53.560;9.940;2023-06-14T04:36:10;16.70;74.30
4673;DHT22;61885;53.560;9.940;2023-06-14T04:38:44;17.10;73.30
4673;DHT22;61885;53.560;9.940;2023-06-14T04:41:18;17.10;74.20
4673;DHT22;61885;53.560;9.940;2023-06-14T04:43:49;17.20;73.10
4673;DHT22;61885;53.560;9.940;2023-06-14T04:46:20;16.90;73.00
4673;DHT22;61885;53.560;9.940;2023-06-14T04:48:49;16.70;73.80
4673;DHT22;61885;53.560;9.940;2023-06-14T04:51:19;16.40;74.80
4673;DHT22;61885;53.560;9.940;2023-06-14T04:53:56;16.40;75.40
4673;DHT22;61885;53.560;9.940;2023-06-14T04:56:30;16.30;75.50
4673;DHT22;61885;53.560;9.940;2023-06-14T04:59:01;16.40;75.20
4673;DHT22;61885;53.560;9.940;2023-06-14T05:01:31;16.50;75.30
4673;DHT22;61885;53.560;9.940;2023-06-14T05:04:01;16.50;75.00
4673;DHT22;61885;53.560;9.940;2023-06-14T05:06:30;16.50;75.20
4673;DHT22;61885;53.560;9.940;2023-06-14T05:09:01;16.50;74.70
4673;DHT22;61885;53.560;9.940;2023-06-14T05:11:34;16.60;74.30
4673;DHT22;61885;53.560;9.940;2023-06-14T05:14:03;16.70;73.90
4673;DHT22;61885;53.560;9.940;2023-06-14T05:16:33;16.70;73.90
4673;DHT22;61885;53.560;9.940;2023-06-14T05:19:03;16.90;73.50
4673;DHT22;61885;53.560;9.940;2023-06-14T05:21:33;16.90;73.10
4673;DHT22;61885;53.560;9.940;2023-06-14T05:24:03;16.90;73.00
4673;DHT22;61885;53.560;9.940;2023-06-14T05:26:35;17.00;73.00
4673;DHT22;61885;53.560;9.940;2023-06-14T05:29:05;17.10;72.20
4673;DHT22;61885;53.560;9.940;2023-06-14T05:31:34;17.20;71.40
4673;DHT22;61885;53.560;9.940;2023-06-14T05:34:04;17.20;71.10
4673;DHT22;61885;53.560;9.940;2023-06-14T05:36:33;17.20;71.40
4673;DHT22;61885;53.560;9.940;2023-06-14T05:39:03;17.20;71.10
4673;DHT22;61885;53.560;9.940;2023-06-14T05:41:35;17.30;70.90
4673;DHT22;61885;53.560;9.940;2023-06-14T05:44:05;17.50;70.00
4673;DHT22;61885;53.560;9.940;2023-06-14T05:46:34;17.60;70.00
4673;DHT22;61885;53.560;9.940;2023-06-14T05:49:06;17.80;69.40
4673;DHT22;61885;53.560;9.940;2023-06-14T05:51:35;17.80;69.20
4673;DHT22;61885;53.560;9.940;2023-06-14T05:54:05;17.80;69.00
4673;DHT22;61885;53.560;9.940;2023-06-14T05:56:37;18.00;68.60
4673;DHT22;61885;53.560;9.940;2023-06-14T05:59:06;18.10;68.30
4673;DHT22;61885;53.560;9.940;2023-06-14T06:01:36;18.00;68.30
4673;DHT22;61885;53.560;9.940;2023-06-14T06:04:06;18.10;67.70
4673;DHT22;61885;53.560;9.940;2023-06-14T06:06:36;18.10;67.60
4673;DHT22;61885;53.560;9.940;2023-06-14T06:09:08;18.30;66.70
4673;DHT22;61885;53.560;9.940;2023-06-14T06:11:40;18.20;66.60
4673;DHT22;61885;53.560;9.940;2023-06-14T06:14:12;18.30;66.60
4673;DHT22;61885;53.560;9.940;2023-06-14T06:16:41;18.50;65.80
4673;DHT22;61885;53.560;9.940;2023-06-14T06:19:12;18.40;65.70
4673;DHT22;61885;53.560;9.940;2023-06-14T06:21:41;18.40;65.00
4673;DHT22;61885;53.560;9.940;2023-06-14T06:24:11;18.50;64.80
4673;DHT22;61885;53.560;9.940;2023-06-14T06:26:43;18.60;63.40
4673;DHT22;61885;53.560;9.940;2023-06-14T06:29:12;18.50;63.40
4673;DHT22;61885;53.560;9.940;2023-06-14T06:31:42;18.50;63.90
4673;DHT22;61885;53.560;9.940;2023-06-14T06:34:12;18.40;63.80
4673;DHT22;61885;53.560;9.940;2023-06-14T06:36:42;18.70;63.50
4673;DHT22;61885;53.560;9.940;2023-06-14T06:39:11;18.80;62.80
4673;DHT22;61885;53.560;9.940;2023-06-14T06:41:44;18.90;62.70
4673;DHT22;61885;53.560;9.940;2023-06-14T06:44:13;19.00;62.70
4673;DHT22;61885;53.560;9.940;2023-06-14T06:46:43;19.10;62.60
4673;DHT22;61885;53.560;9.940;2023-06-14T06:49:13;19.20;61.50
4673;DHT22;61885;53.560;9.940;2023-06-14T06:51:43;19.10;61.50
4673;DHT22;61885;53.560;9.940;2023-06-14T06:54:13;18.90;61.70
4673;DHT22;61885;53.560;9.940;2023-06-14T06:56:45;19.00;61.10
4673;DHT22;61885;53.560;9.940;2023-06-14T06:59:14;19.10;60.50
4673;DHT22;61885;53.560;9.940;2023-06-14T07:01:43;19.20;60.30
4673;DHT22;61885;53.560;9.940;2023-06-14T07:04:13;19.40;60.00
4673;DHT22;61885;53.560;9.940;2023-06-14T07:06:43;19.50;58.70
4673;DHT22;61885;53.560;9.940;2023-06-14T07:09:16;19.50;58.40
4673;DHT22;61885;53.560;9.940;2023-06-14T07:11:49;19.40;59.30
4673;DHT22;61885;53.560;9.940;2023-06-14T07:14:18;19.40;59.80
4673;DHT22;61885;53.560;9.940;2023-06-14T07:16:49;19.60;58.90
4673;DHT22;61885;53.560;9.940;2023-06-14T07:19:19;19.70;58.30
4673;DHT22;61885;53.560;9.940;2023-06-14T07:21:49;19.80;58.00
4673;DHT22;61885;53.560;9.940;2023-06-14T07:24:18;19.80;57.70
4673;DHT22;61885;53.560;9.940;2023-06-14T07:26:51;19.80;57.70
4673;DHT22;61885;53.560;9.940;2023-06-14T07:29:20;19.80;57.80
4673;DHT22;61885;53.560;9.940;2023-06-14T07:31:50;19.70;57.50
4673;DHT22;61885;53.560;9.940;2023-06-14T07:34:19;19.80;57.10
4673;DHT22;61885;53.560;9.940;2023-06-14T07:36:48;20.10;56.80
4673;DHT22;61885;53.560;9.940;2023-06-14T07:39:18;20.20;56.20
4673;DHT22;61885;53.560;9.940;2023-06-14T07:41:51;20.10;56.20
4673;DHT22;61885;53.560;9.940;2023-06-14T07:44:20;20.20;56.40
4673;DHT22;61885;53.560;9.940;2023-06-14T07:46:50;20.20;56.00
4673;DHT22;61885;53.560;9.940;2023-06-14T07:49:19;20.40;55.10
4673;DHT22;61885;53.560;9.940;2023-06-14T07:51:49;20.40;55.40
4673;DHT22;61885;53.560;9.940;2023-06-14T07:54:21;20.40;55.40
4673;DHT22;61885;53.560;9.940;2023-06-14T07:56:55;20.40;55.40
4673;DHT22;61885;53.560;9.940;2023-06-14T07:59:27;20.30;55.10
4673;DHT22;61885;53.560;9.940;2023-06-14T08:01:56;20.40;55.10
4673;DHT22;61885;53.560;9.940;2023-06-14T08:04:26;20.40;55.20
4673;DHT22;61885;53.560;9.940;2023-06-14T08:06:55;20.60;54.70
4673;DHT22;61885;53.560;9.940;2023-06-14T08:09:25;20.70;54.80
4673;DHT22;61885;53.560;9.940;2023-06-14T08:11:58;20.80;54.30
4673;DHT22;61885;53.560;9.940;2023-06-14T08:14:27;20.80;53.70
4673;DHT22;61885;53.560;9.940;2023-06-14T08:16:58;21.00;53.40
4673;DHT22;61885;53.560;9.940;2023-06-14T08:19:27;21.00;53.40
4673;DHT22;61885;53.560;9.940;2023-06-14T08:21:57;21.20;53.00
4673;DHT22;61885;53.560;9.940;2023-06-14T08:24:27;21.20;53.20
4673;DHT22;61885;53.560;9.940;2023-06-14T08:26:59;21.30;52.70
4673;DHT22;61885;53.560;9.940;2023-06-14T08:29:29;21.40;52.70
4673;DHT22;61885;53.560;9.940;2023-06-14T08:31:58;21.40;51.80
4673;DHT22;61885;53.560;9.940;2023-06-14T08:34:28;21.40;51.80
4673;DHT22;61885;53.560;9.940;2023-06-14T08:36:58;21.40;51.70
4673;DHT22;61885;53.560;9.940;2023-06-14T08:39:28;21.50;51.50
4673;DHT22;61885;53.560;9.940;2023-06-14T08:42:01;21.60;51.10
4673;DHT22;61885;53.560;9.940;2023-06-14T08:44:32;21.60;50.90
4673;DHT22;61885;53.560;9.940;2023-06-14T08:47:02;21.70;50.60
4673;DHT22;61885;53.560;9.940;2023-06-14T08:49:32;21.70;50.30
4673;DHT22;61885;53.560;9.940;2023-06-14T08:52:02;21.80;50.40
4673;DHT22;61885;53.560;9.940;2023-06-14T08:54:35;21.90;50.30
4673;DHT22;61885;53.560;9.940;2023-06-14T08:57:13;21.70;50.60
4673;DHT22;61885;53.560;9.940;2023-06-14T08:59:47;21.60;50.20
4673;DHT22;61885;53.560;9.940;2023-06-14T09:02:19;21.80;49.90
4673;DHT22;61885;53.560;9.940;2023-06-14T09:04:48;21.80;50.50
4673;DHT22;61885;53.560;9.940;2023-06-14T09:07:18;21.90;50.50
4673;DHT22;61885;53.560;9.940;2023-06-14T09:09:48;22.00;50.60
4673;DHT22;61885;53.560;9.940;2023-06-14T09:12:20;22.10;50.20
4673;DHT22;61885;53.560;9.940;2023-06-14T09:14:49;22.20;50.00
4673;DHT22;61885;53.560;9.940;2023-06-14T09:17:19;22.30;49.50
4673;DHT22;61885;53.560;9.940;2023-06-14T09:19:48;22.40;48.80
4673;DHT22;61885;53.560;9.940;2023-06-14T09:22:18;22.40;49.10
4673;DHT22;61885;53.560;9.940;2023-06-14T09:24:47;22.40;49.30
4673;DHT22;61885;53.560;9.940;2023-06-14T09:27:19;22.60;49.70
4673;DHT22;61885;53.560;9.940;2023-06-14T09:29:49;22.70;48.80
4673;DHT22;61885;53.560;9.940;2023-06-14T09:32:18;23.00;48.70
4673;DHT22;61885;53.560;9.940;2023-06-14T09:34:49;23.00;48.00
4673;DHT22;61885;53.560;9.940;2023-06-14T09:37:29;22.80;48.20
4673;DHT22;61885;53.560;9.940;2023-06-14T09:39:59;22.80;48.70
4673;DHT22;61885;53.560;9.940;2023-06-14T09:42:33;23.00;47.90
4673;DHT22;61885;53.560;9.940;2023-06-14T09:45:04;22.80;48.60
4673;DHT22;61885;53.560;9.940;2023-06-14T09:47:34;22.80;49.00
4673;DHT22;61885;53.560;9.940;2023-06-14T09:50:04;23.00;48.40
4673;DHT22;61885;53.560;9.940;2023-06-14T09:52:34;22.80;48.20
4673;DHT22;61885;53.560;9.940;2023-06-14T09:55:11;22.80;48.50
4673;DHT22;61885;53.560;9.940;2023-06-14T09:57:48;23.10;48.00
4673;DHT22;61885;53.560;9.940;2023-06-14T10:00:21;23.20;47.80
4673;DHT22;61885;53.560;9.940;2023-06-14T10:02:55;23.20;47.20
4673;DHT22;61885;53.560;9.940;2023-06-14T10:05:28;23.10;47.60
4673;DHT22;61885;53.560;9.940;2023-06-14T10:08:01;23.20;47.90
4673;DHT22;61885;53.560;9.940;2023-06-14T10:10:33;23.20;47.80
4673;DHT22;61885;53.560;9.940;2023-06-14T10:13:06;23.10;48.10
4673;DHT22;61885;53.560;9.940;2023-06-14T10:15:45;23.20;48.10
4673;DHT22;61885;53.560;9.940;2023-06-14T10:18:21;23.30;47.50
4673;DHT22;61885;53.560;9.940;2023-06-14T10:21:02;23.10;48.30
4673;DHT22;61885;53.560;9.940;2023-06-14T10:23:37;23.00;48.80
4673;DHT22;61885;53.560;9.940;2023-06-14T10:26:19;23.20;47.90
4673;DHT22;61885;53.560;9.940;2023-06-14T10:29:00;23.50;47.80
4673;DHT22;61885;53.560;9.940;2023-06-14T10:31:43;23.50;47.20
4673;DHT22;61885;53.560;9.940;2023-06-14T10:34:22;23.50;47.30
4673;DHT22;61885;53.560;9.940;2023-06-14T10:37:06;23.60;47.50
4673;DHT22;61885;53.560;9.940;2023-06-14T10:39:40;23.90;46.80
4673;DHT22;61885;53.560;9.940;2023-06-14T10:42:10;24.00;46.80
4673;DHT22;61885;53.560;9.940;2023-06-14T10:44:45;24.10;46.80
4673;DHT22;61885;53.560;9.940;2023-06-14T10:47:23;24.00;45.90
4673;DHT22;61885;53.560;9.940;2023-06-14T10:49:54;23.90;45.90
4673;DHT22;61885;53.560;9.940;2023-06-14T10:52:27;24.00;45.80
4673;DHT22;61885;53.560;9.940;2023-06-14T10:55:04;24.40;45.10
4673;DHT22;61885;53.560;9.940;2023-06-14T10:57:36;24.40;45.20
4673;DHT22;61885;53.560;9.940;2023-06-14T11:00:10;24.70;44.80
4673;DHT22;61885;53.560;9.940;2023-06-14T11:05:49;24.70;44.50
4673;DHT22;61885;53.560;9.940;2023-06-14T11:08:52;24.20;45.30
4673;DHT22;61885;53.560;9.940;2023-06-14T11:11:31;24.40;44.30
4673;DHT22;61885;53.560;9.940;2023-06-14T11:14:01;24.80;43.50
4673;DHT22;61885;53.560;9.940;2023-06-14T11:16:34;24.90;43.60
4673;DHT22;61885;53.560;9.940;2023-06-14T11:19:03;25.00;44.00
4673;DHT22;61885;53.560;9.940;2023-06-14T11:21:33;24.50;44.20
4673;DHT22;61885;53.560;9.940;2023-06-14T11:24:09;24.60;44.50
4673;DHT22;61885;53.560;9.940;2023-06-14T11:26:40;24.70;44.10
4673;DHT22;61885;53.560;9.940;2023-06-14T11:29:10;24.90;43.90
4673;DHT22;61885;53.560;9.940;2023-06-14T11:31:43;25.40;43.00
4673;DHT22;61885;53.560;9.940;2023-06-14T11:34:13;25.50;43.10
4673;DHT22;61885;53.560;9.940;2023-06-14T11:36:43;25.30;42.50
4673;DHT22;61885;53.560;9.940;2023-06-14T11:39:14;24.70;43.90
4673;DHT22;61885;53.560;9.940;2023-06-14T11:41:47;24.80;43.80
4673;DHT22;61885;53.560;9.940;2023-06-14T11:44:17;25.10;43.40
4673;DHT22;61885;53.560;9.940;2023-06-14T11:46:49;25.30;42.70
4673;DHT22;61885;53.560;9.940;2023-06-14T11:49:18;25.20;43.30
4673;DHT22;61885;53.560;9.940;2023-06-14T11:51:48;25.60;42.80
4673;DHT22;61885;53.560;9.940;2023-06-14T11:54:17;26.70;41.20
4673;DHT22;61885;53.560;9.940;2023-06-14T11:56:47;27.30;40.50
4673;DHT22;61885;53.560;9.940;2023-06-14T11:59:17;27.30;40.10
4673;DHT22;61885;53.560;9.940;2023-06-14T12:01:50;26.80;40.30
4673;DHT22;61885;53.560;9.940;2023-06-14T12:04:26;26.30;41.20
4673;DHT22;61885;53.560;9.940;2023-06-14T12:07:02;25.80;42.20
4673;DHT22;61885;53.560;9.940;2023-06-14T12:09:41;25.80;42.30
4673;DHT22;61885;53.560;9.940;2023-06-14T12:12:12;26.00;42.00
4673;DHT22;61885;53.560;9.940;2023-06-14T12:14:42;26.70;41.20
4673;DHT22;61885;53.560;9.940;2023-06-14T12:17:19;27.10;40.60
4673;DHT22;61885;53.560;9.940;2023-06-14T12:19:49;27.10;40.50
4673;DHT22;61885;53.560;9.940;2023-06-14T12:22:19;27.30;40.10
4673;DHT22;61885;53.560;9.940;2023-06-14T12:24:49;27.00;40.30
4673;DHT22;61885;53.560;9.940;2023-06-14T12:27:21;26.50;41.00
4673;DHT22;61885;53.560;9.940;2023-06-14T12:30:02;26.10;41.30
4673;DHT22;61885;53.560;9.940;2023-06-14T12:32:37;26.50;40.80
4673;DHT22;61885;53.560;9.940;2023-06-14T12:35:08;26.50;40.00
4673;DHT22;61885;53.560;9.940;2023-06-14T12:37:39;26.40;40.50
4673;DHT22;61885;53.560;9.940;2023-06-14T12:40:10;26.30;41.10
4673;DHT22;61885;53.560;9.940;2023-06-14T12:42:41;25.70;41.70
4673;DHT22;61885;53.560;9.940;2023-06-14T12:45:11;26.10;42.00
4673;DHT22;61885;53.560;9.940;2023-06-14T12:47:46;26.70;41.00
4673;DHT22;61885;53.560;9.940;2023-06-14T12:50:15;28.40;38.50
4673;DHT22;61885;53.560;9.940;2023-06-14T12:52:45;28.90;38.40
4673;DHT22;61885;53.560;9.940;2023-06-14T12:55:15;29.00;38.10
4673;DHT22;61885;53.560;9.940;2023-06-14T12:57:47;28.90;37.90
4673;DHT22;61885;53.560;9.940;2023-06-14T13:00:19;28.30;38.60
4673;DHT22;61885;53.560;9.940;2023-06-14T13:02:51;28.10;38.80
4673;DHT22;61885;53.560;9.940;2023-06-14T13:05:21;27.60;39.40
4673;DHT22;61885;53.560;9.940;2023-06-14T13:07:51;27.90;38.90
4673;DHT22;61885;53.560;9.940;2023-06-14T13:10:20;27.70;38.50
4673;DHT22;61885;53.560;9.940;2023-06-14T13:12:50;28.50;37.90
4673;DHT22;61885;53.560;9.940;2023-06-14T13:15:20;28.50;37.90
4673;DHT22;61885;53.560;9.940;2023-06-14T13:17:52;27.90;38.70
4673;DHT22;61885;53.560;9.940;2023-06-14T13:20:22;27.60;39.20
4673;DHT22;61885;53.560;9.940;2023-06-14T13:22:53;27.30;39.40
4673;DHT22;61885;53.560;9.940;2023-06-14T13:25:22;27.40;39.00
4673;DHT22;61885;53.560;9.940;2023-06-14T13:27:52;27.50;39.10
4673;DHT22;61885;53.560;9.940;2023-06-14T13:30:22;27.90;39.30
4673;DHT22;61885;53.560;9.940;2023-06-14T13:32:55;28.30;38.10
4673;DHT22;61885;53.560;9.940;2023-06-14T13:35:28;28.70;37.80
4673;DHT22;61885;53.560;9.940;2023-06-14T13:37:58;29.50;37.20
4673;DHT22;61885;53.560;9.940;2023-06-14T13:40:27;29.90;36.00
4673;DHT22;61885;53.560;9.940;2023-06-14T13:42:57;29.20;37.20
4673;DHT22;61885;53.560;9.940;2023-06-14T13:45:27;29.80;36.70
4673;DHT22;61885;53.560;9.940;2023-06-14T13:48:01;28.50;38.20
4673;DHT22;61885;53.560;9.940;2023-06-14T13:50:30;27.80;39.00
4673;DHT22;61885;53.560;9.940;2023-06-14T13:53:00;27.70;38.90
4673;DHT22;61885;53.560;9.940;2023-06-14T13:55:30;27.40;38.60
4673;DHT22;61885;53.560;9.940;2023-06-14T13:57:59;27.50;38.70
4673;DHT22;61885;53.560;9.940;2023-06-14T14:00:29;27.30;38.90
4673;DHT22;61885;53.560;9.940;2023-06-14T14:03:02;28.00;38.10
4673;DHT22;61885;53.560;9.940;2023-06-14T14:05:32;28.70;37.10
4673;DHT22;61885;53.560;9.940;2023-06-14T14:08:03;29.40;36.70
4673;DHT22;61885;53.560;9.940;2023-06-14T14:10:33;29.70;36.00
4673;DHT22;61885;53.560;9.940;2023-06-14T14:13:03;28.90;37.20
4673;DHT22;61885;53.560;9.940;2023-06-14T14:15:32;29.10;37.00
4673;DHT22;61885;53.560;9.940;2023-06-14T14:18:04;29.80;36.80
4673;DHT22;61885;53.560;9.940;2023-06-14T14:20:34;30.40;35.80
4673;DHT22;61885;53.560;9.940;2023-06-14T14:23:04;30.50;35.20
4673;DHT22;61885;53.560;9.940;2023-06-14T14:25:33;28.90;36.40
4673;DHT22;61885;53.560;9.940;2023-06-14T14:28:03;28.20;36.90
4673;DHT22;61885;53.560;9.940;2023-06-14T14:30:35;28.20;37.90
4673;DHT22;61885;53.560;9.940;2023-06-14T14:33:09;28.60;36.40
4673;DHT22;61885;53.560;9.940;2023-06-14T14:35:42;28.90;36.30
4673;DHT22;61885;53.560;9.940;2023-06-14T14:38:12;29.30;35.90
4673;DHT22;61885;53.560;9.940;2023-06-14T14:40:45;30.10;35.20
4673;DHT22;61885;53.560;9.940;2023-06-14T14:43:15;29.30;36.40
4673;DHT22;61885;53.560;9.940;2023-06-14T14:45:45;30.60;35.20
4673;DHT22;61885;53.560;9.940;2023-06-14T14:48:17;31.60;34.60
4673;DHT22;61885;53.560;9.940;2023-06-14T14:50:48;31.50;34.20
4673;DHT22;61885;53.560;9.940;2023-06-14T14:53:18;30.50;35.00
4673;DHT22;61885;53.560;9.940;2023-06-14T14:55:48;29.60;35.40
4673;DHT22;61885;53.560;9.940;2023-06-14T14:58:18;28.80;36.10
4673;DHT22;61885;53.560;9.940;2023-06-14T15:00:47;28.20;37.10
4673;DHT22;61885;53.560;9.940;2023-06-14T15:03:20;28.90;36.20
4673;DHT22;61885;53.560;9.940;2023-06-14T15:05:49;29.20;35.90
4673;DHT22;61885;53.560;9.940;2023-06-14T15:08:20;29.50;35.80
4673;DHT22;61885;53.560;9.940;2023-06-14T15:10:49;30.60;34.50
4673;DHT22;61885;53.560;9.940;2023-06-14T15:13:19;31.70;33.50
4673;DHT22;61885;53.560;9.940;2023-06-14T15:15:49;31.40;34.00
4673;DHT22;61885;53.560;9.940;2023-06-14T15:18:21;32.20;33.30
4673;DHT22;61885;53.560;9.940;2023-06-14T15:20:51;32.50;33.70
4673;DHT22;61885;53.560;9.940;2023-06-14T15:23:25;32.70;33.10
4673;DHT22;61885;53.560;9.940;2023-06-14T15:25:54;33.40;32.30
4673;DHT22;61885;53.560;9.940;2023-06-14T15:28:25;31.20;33.70
4673;DHT22;61885;53.560;9.940;2023-06-14T15:30:57;30.40;34.20
4673;DHT22;61885;53.560;9.940;2023-06-14T15:33:29;29.80;34.50
4673;DHT22;61885;53.560;9.940;2023-06-14T15:35:59;28.40;35.70
4673;DHT22;61885;53.560;9.940;2023-06-14T15:38:29;28.10;36.50
4673;DHT22;61885;53.560;9.940;2023-06-14T15:40:59;29.60;35.20
4673;DHT22;61885;53.560;9.940;2023-06-14T15:43:30;31.20;33.60
4673;DHT22;61885;53.560;9.940;2023-06-14T15:46:00;31.10;33.50
4673;DHT22;61885;53.560;9.940;2023-06-14T15:48:32;30.60;34.90
4673;DHT22;61885;53.560;9.940;2023-06-14T15:51:04;32.10;33.10
4673;DHT22;61885;53.560;9.940;2023-06-14T15:53:33;32.90;32.40
4673;DHT22;61885;53.560;9.940;2023-06-14T15:56:04;31.50;33.20
4673;DHT22;61885;53.560;9.940;2023-06-14T15:58:34;31.90;33.00
4673;DHT22;61885;53.560;9.940;2023-06-14T16:01:03;32.80;32.10
4673;DHT22;61885;53.560;9.940;2023-06-14T16:03:35;32.90;32.20
4673;DHT22;61885;53.560;9.940;2023-06-14T16:06:05;33.10;32.10
4673;DHT22;61885;53.560;9.940;2023-06-14T16:08:35;33.50;32.00
4673;DHT22;61885;53.560;9.940;2023-06-14T16:11:05;34.30;31.30
4673;DHT22;61885;53.560;9.940;2023-06-14T16:13:34;33.90;31.30